sensor_id;sensor_type;location;lat;lon;timestamp;temperature;humidity
52058;DHT22;38063;53.210;6.504;2022-09-09T00:00:13;14.90;99.90
52058;DHT22;38063;53.210;6.504;2022-09-09T00:02:47;14.80;99.90
52058;DHT22;38063;53.210;6.504;2022-09-09T00:05:36;14.80;99.90
52058;DHT22;38063;53.210;6.504;2022-09-09T00:08:04;14.70;99.90
52058;DHT22;38063;53.210;6.504;2022-09-09T00:10:31;14.70;99.90
52058;DHT22;38063;53.210;6.504;2022-09-09T00:15:59;14.60;99.90
52058;DHT22;38063;53.210;6.504;2022-09-09T00:18:50;14.60;99.90
52058;DHT22;38063;53.210;6.504;2022-09-09T00:21:18;14.50;99.90
52058;DHT22;38063;53.210;6.504;2022-09-09T00:23:51;14.50;99.90
52058;DHT22;38063;53.210;6.504;2022-09-09T00:26:40;14.50;99.90
52058;DHT22;38063;53.210;6.504;2022-09-09T00:31:34;14.70;99.90
52058;DHT22;38063;53.210;6.504;2022-09-09T00:34:11;14.40;99.90
52058;DHT22;38063;53.210;6.504;2022-09-09T00:36:39;14.30;99.90
52058;DHT22;38063;53.210;6.504;2022-09-09T00:39:05;14.40;99.90
52058;DHT22;38063;53.210;6.504;2022-09-09T00:44:35;14.30;99.90
52058;DHT22;38063;53.210;6.504;2022-09-09T00:50:09;14.20;99.90
52058;DHT22;38063;53.210;6.504;2022-09-09T00:52:58;14.20;99.90
52058;DHT22;38063;53.210;6.504;2022-09-09T00:56:00;14.20;99.90
52058;DHT22;38063;53.210;6.504;2022-09-09T00:58:29;14.10;99.90
52058;DHT22;38063;53.210;6.504;2022-09-09T01:01:12;14.10;99.90
52058;DHT22;38063;53.210;6.504;2022-09-09T01:03:56;14.10;99.90
52058;DHT22;38063;53.210;6.504;2022-09-09T01:06:34;14.10;99.90
52058;DHT22;38063;53.210;6.504;2022-09-09T01:09:25;14.10;99.90
52058;DHT22;38063;53.210;6.504;2022-09-09T01:22:44;14.00;99.90
52058;DHT22;38063;53.210;6.504;2022-09-09T01:25:29;14.00;99.90
52058;DHT22;38063;53.210;6.504;2022-09-09T01:27:59;13.90;99.90
52058;DHT22;38063;53.210;6.504;2022-09-09T01:30:26;13.90;99.90
52058;DHT22;38063;53.210;6.504;2022-09-09T01:32:57;13.90;99.90
52058;DHT22;38063;53.210;6.504;2022-09-09T01:37:57;13.90;99.90
52058;DHT22;38063;53.210;6.504;2022-09-09T01:40:25;13.80;99.90
52058;DHT22;38063;53.210;6.504;2022-09-09T01:42:52;13.70;99.90
52058;DHT22;38063;53.210;6.504;2022-09-09T01:45:18;13.70;99.90
52058;DHT22;38063;53.210;6.504;2022-09-09T01:47:45;13.70;99.90
52058;DHT22;38063;53.210;6.504;2022-09-09T01:50:13;13.70;99.90
52058;DHT22;38063;53.210;6.504;2022-09-09T01:52:40;13.70;99.90
52058;DHT22;38063;53.210;6.504;2022-09-09T01:55:06;13.70;99.90
52058;DHT22;38063;53.210;6.504;2022-09-09T02:00:24;13.70;99.90
52058;DHT22;38063;53.210;6.504;2022-09-09T02:03:16;13.60;99.90
52058;DHT22;38063;53.210;6.504;2022-09-09T02:08:50;13.60;99.90
52058;DHT22;38063;53.210;6.504;2022-09-09T02:11:23;13.60;99.90
52058;DHT22;38063;53.210;6.504;2022-09-09T02:13:52;13.50;99.90
52058;DHT22;38063;53.210;6.504;2022-09-09T02:19:12;13.60;99.90
52058;DHT22;38063;53.210;6.504;2022-09-09T02:21:40;13.80;99.90
52058;DHT22;38063;53.210;6.504;2022-09-09T02:24:07;13.60;99.90
52058;DHT22;38063;53.210;6.504;2022-09-09T02:26:39;13.60;99.90
52058;DHT22;38063;53.210;6.504;2022-09-09T02:29:11;13.60;99.90
52058;DHT22;38063;53.210;6.504;2022-09-09T02:31:38;13.90;99.90
52058;DHT22;38063;53.210;6.504;2022-09-09T02:34:05;13.60;99.90
52058;DHT22;38063;53.210;6.504;2022-09-09T02:36:35;13.60;99.90
52058;DHT22;38063;53.210;6.504;2022-09-09T02:39:02;13.60;99.90
52058;DHT22;38063;53.210;6.504;2022-09-09T02:41:36;13.70;99.90
52058;DHT22;38063;53.210;6.504;2022-09-09T02:44:05;13.70;99.90
52058;DHT22;38063;53.210;6.504;2022-09-09T02:47:00;13.70;99.90
52058;DHT22;38063;53.210;6.504;2022-09-09T02:52:27;13.70;99.90
52058;DHT22;38063;53.210;6.504;2022-09-09T02:55:04;13.70;99.90
52058;DHT22;38063;53.210;6.504;2022-09-09T02:57:31;13.80;99.90
52058;DHT22;38063;53.210;6.504;2022-09-09T02:59:58;13.80;99.90
52058;DHT22;38063;53.210;6.504;2022-09-09T03:02:24;13.80;99.90
52058;DHT22;38063;53.210;6.504;2022-09-09T03:04:50;13.30;99.90
52058;DHT22;38063;53.210;6.504;2022-09-09T03:07:20;13.80;99.90
52058;DHT22;38063;53.210;6.504;2022-09-09T03:09:46;13.90;99.90
52058;DHT22;38063;53.210;6.504;2022-09-09T03:12:11;13.90;99.90
52058;DHT22;38063;53.210;6.504;2022-09-09T03:14:38;14.10;99.90
52058;DHT22;38063;53.210;6.504;2022-09-09T03:17:05;13.90;99.90
52058;DHT22;38063;53.210;6.504;2022-09-09T03:19:30;14.00;99.90
52058;DHT22;38063;53.210;6.504;2022-09-09T03:21:57;14.00;99.90
52058;DHT22;38063;53.210;6.504;2022-09-09T03:24:23;14.00;99.90
52058;DHT22;38063;53.210;6.504;2022-09-09T03:26:49;14.00;99.90
52058;DHT22;38063;53.210;6.504;2022-09-09T03:29:16;14.00;99.90
52058;DHT22;38063;53.210;6.504;2022-09-09T03:31:44;14.10;99.90
52058;DHT22;38063;53.210;6.504;2022-09-09T03:34:10;14.10;99.90
52058;DHT22;38063;53.210;6.504;2022-09-09T03:36:36;14.00;99.90
52058;DHT22;38063;53.210;6.504;2022-09-09T03:39:02;14.10;99.90
52058;DHT22;38063;53.210;6.504;2022-09-09T03:41:29;14.10;99.90
52058;DHT22;38063;53.210;6.504;2022-09-09T03:43:55;14.30;99.90
52058;DHT22;38063;53.210;6.504;2022-09-09T03:46:22;14.10;99.90
52058;DHT22;38063;53.210;6.504;2022-09-09T03:48:48;14.10;99.90
52058;DHT22;38063;53.210;6.504;2022-09-09T03:51:14;14.20;99.90
52058;DHT22;38063;53.210;6.504;2022-09-09T03:53:41;14.20;99.90
52058;DHT22;38063;53.210;6.504;2022-09-09T03:56:07;14.20;99.90
52058;DHT22;38063;53.210;6.504;2022-09-09T03:58:34;14.20;99.90
52058;DHT22;38063;53.210;6.504;2022-09-09T04:01:05;14.40;99.90
52058;DHT22;38063;53.210;6.504;2022-09-09T04:03:31;14.30;99.90
52058;DHT22;38063;53.210;6.504;2022-09-09T04:05:59;14.30;99.90
52058;DHT22;38063;53.210;6.504;2022-09-09T04:08:25;14.30;99.90
52058;DHT22;38063;53.210;6.504;2022-09-09T04:10:52;14.30;99.90
52058;DHT22;38063;53.210;6.504;2022-09-09T04:13:18;14.30;99.90
52058;DHT22;38063;53.210;6.504;2022-09-09T04:15:51;14.30;99.90
52058;DHT22;38063;53.210;6.504;2022-09-09T04:18:17;14.30;99.90
52058;DHT22;38063;53.210;6.504;2022-09-09T04:20:43;14.30;99.90
52058;DHT22;38063;53.210;6.504;2022-09-09T04:23:10;14.40;99.90
52058;DHT22;38063;53.210;6.504;2022-09-09T04:25:36;14.40;99.90
52058;DHT22;38063;53.210;6.504;2022-09-09T04:28:03;14.40;99.90
52058;DHT22;38063;53.210;6.504;2022-09-09T04:30:29;14.40;99.90
52058;DHT22;38063;53.210;6.504;2022-09-09T04:32:54;14.40;99.90
52058;DHT22;38063;53.210;6.504;2022-09-09T04:35:20;14.40;99.90
52058;DHT22;38063;53.210;6.504;2022-09-09T04:37:46;14.40;99.90
52058;DHT22;38063;53.210;6.504;2022-09-09T04:40:12;14.40;99.90
52058;DHT22;38063;53.210;6.504;2022-09-09T04:42:38;14.60;99.90
52058;DHT22;38063;53.210;6.504;2022-09-09T04:45:05;14.40;99.90
52058;DHT22;38063;53.210;6.504;2022-09-09T04:47:32;14.40;99.90
52058;DHT22;38063;53.210;6.504;2022-09-09T04:49:59;14.40;99.90
52058;DHT22;38063;53.210;6.504;2022-09-09T04:52:26;14.40;99.90
52058;DHT22;38063;53.210;6.504;2022-09-09T04:54:51;14.40;99.90
52058;DHT22;38063;53.210;6.504;2022-09-09T04:57:19;14.50;99.90
52058;DHT22;38063;53.210;6.504;2022-09-09T04:59:45;14.50;99.90
52058;DHT22;38063;53.210;6.504;2022-09-09T05:02:11;14.40;99.90
52058;DHT22;38063;53.210;6.504;2022-09-09T05:04:37;14.50;99.90
52058;DHT22;38063;53.210;6.504;2022-09-09T05:07:02;14.50;99.90
52058;DHT22;38063;53.210;6.504;2022-09-09T05:09:28;14.50;99.90
52058;DHT22;38063;53.210;6.504;2022-09-09T05:11:54;14.50;99.90
52058;DHT22;38063;53.210;6.504;2022-09-09T05:14:20;14.40;99.90
52058;DHT22;38063;53.210;6.504;2022-09-09T05:16:46;14.40;99.90
52058;DHT22;38063;53.210;6.504;2022-09-09T05:19:12;14.50;99.90
52058;DHT22;38063;53.210;6.504;2022-09-09T05:21:38;14.40;99.90
52058;DHT22;38063;53.210;6.504;2022-09-09T05:24:04;14.40;99.90
52058;DHT22;38063;53.210;6.504;2022-09-09T05:26:29;14.40;99.90
52058;DHT22;38063;53.210;6.504;2022-09-09T05:28:56;14.40;99.90
52058;DHT22;38063;53.210;6.504;2022-09-09T05:31:24;14.50;99.90
52058;DHT22;38063;53.210;6.504;2022-09-09T05:33:53;14.40;99.90
52058;DHT22;38063;53.210;6.504;2022-09-09T05:36:20;14.40;99.90
52058;DHT22;38063;53.210;6.504;2022-09-09T05:38:47;14.50;99.90
52058;DHT22;38063;53.210;6.504;2022-09-09T05:41:13;14.50;99.90
52058;DHT22;38063;53.210;6.504;2022-09-09T05:43:41;14.50;99.90
52058;DHT22;38063;53.210;6.504;2022-09-09T05:48:44;14.50;99.90
52058;DHT22;38063;53.210;6.504;2022-09-09T05:51:13;14.50;99.90
52058;DHT22;38063;53.210;6.504;2022-09-09T05:53:41;14.70;99.90
52058;DHT22;38063;53.210;6.504;2022-09-09T05:56:09;14.60;99.90
52058;DHT22;38063;53.210;6.504;2022-09-09T05:58:36;14.50;99.90
52058;DHT22;38063;53.210;6.504;2022-09-09T06:01:13;14.50;99.90
52058;DHT22;38063;53.210;6.504;2022-09-09T06:03:41;14.60;99.90
52058;DHT22;38063;53.210;6.504;2022-09-09T06:06:09;14.60;99.90
52058;DHT22;38063;53.210;6.504;2022-09-09T06:08:38;14.60;99.90
52058;DHT22;38063;53.210;6.504;2022-09-09T06:11:15;14.70;99.90
52058;DHT22;38063;53.210;6.504;2022-09-09T06:13:41;14.70;99.90
52058;DHT22;38063;53.210;6.504;2022-09-09T06:16:12;14.70;99.90
52058;DHT22;38063;53.210;6.504;2022-09-09T06:18:38;14.70;99.90
52058;DHT22;38063;53.210;6.504;2022-09-09T06:21:06;14.80;99.90
52058;DHT22;38063;53.210;6.504;2022-09-09T06:23:33;14.70;99.90
52058;DHT22;38063;53.210;6.504;2022-09-09T06:26:08;14.80;99.90
52058;DHT22;38063;53.210;6.504;2022-09-09T06:28:35;14.80;99.90
52058;DHT22;38063;53.210;6.504;2022-09-09T06:31:03;14.80;99.90
52058;DHT22;38063;53.210;6.504;2022-09-09T06:33:37;14.90;99.90
52058;DHT22;38063;53.210;6.504;2022-09-09T06:36:07;14.90;99.90
52058;DHT22;38063;53.210;6.504;2022-09-09T06:38:35;14.90;99.90
52058;DHT22;38063;53.210;6.504;2022-09-09T06:41:01;15.00;99.90
52058;DHT22;38063;53.210;6.504;2022-09-09T06:43:27;15.00;99.90
52058;DHT22;38063;53.210;6.504;2022-09-09T06:45:58;15.20;99.90
52058;DHT22;38063;53.210;6.504;2022-09-09T06:48:24;15.10;99.90
52058;DHT22;38063;53.210;6.504;2022-09-09T06:51:00;15.10;99.90
52058;DHT22;38063;53.210;6.504;2022-09-09T06:53:26;15.20;99.90
52058;DHT22;38063;53.210;6.504;2022-09-09T06:55:52;15.40;99.90
52058;DHT22;38063;53.210;6.504;2022-09-09T06:58:18;15.30;99.90
52058;DHT22;38063;53.210;6.504;2022-09-09T07:00:44;15.30;99.90
52058;DHT22;38063;53.210;6.504;2022-09-09T07:03:10;15.40;99.90
52058;DHT22;38063;53.210;6.504;2022-09-09T07:05:36;15.30;99.90
52058;DHT22;38063;53.210;6.504;2022-09-09T07:08:02;15.40;99.90
52058;DHT22;38063;53.210;6.504;2022-09-09T07:10:28;15.50;99.90
52058;DHT22;38063;53.210;6.504;2022-09-09T07:12:54;15.50;99.90
52058;DHT22;38063;53.210;6.504;2022-09-09T07:15:20;15.60;99.90
52058;DHT22;38063;53.210;6.504;2022-09-09T07:17:47;15.70;99.90
52058;DHT22;38063;53.210;6.504;2022-09-09T07:20:13;15.50;99.90
52058;DHT22;38063;53.210;6.504;2022-09-09T07:22:40;15.70;99.90
52058;DHT22;38063;53.210;6.504;2022-09-09T07:25:07;15.70;99.90
52058;DHT22;38063;53.210;6.504;2022-09-09T07:27:33;15.80;99.90
52058;DHT22;38063;53.210;6.504;2022-09-09T07:29:59;15.80;99.90
52058;DHT22;38063;53.210;6.504;2022-09-09T07:32:24;15.80;99.90
52058;DHT22;38063;53.210;6.504;2022-09-09T07:34:51;15.80;99.90
52058;DHT22;38063;53.210;6.504;2022-09-09T07:37:17;15.90;99.90
52058;DHT22;38063;53.210;6.504;2022-09-09T07:39:43;15.90;99.90
52058;DHT22;38063;53.210;6.504;2022-09-09T07:42:09;16.00;99.90
52058;DHT22;38063;53.210;6.504;2022-09-09T07:44:37;16.00;99.90
52058;DHT22;38063;53.210;6.504;2022-09-09T07:47:05;16.10;99.90
52058;DHT22;38063;53.210;6.504;2022-09-09T07:49:31;16.10;99.90
52058;DHT22;38063;53.210;6.504;2022-09-09T07:51:58;16.20;99.90
52058;DHT22;38063;53.210;6.504;2022-09-09T07:54:24;16.20;99.90
52058;DHT22;38063;53.210;6.504;2022-09-09T07:56:50;16.30;99.90
52058;DHT22;38063;53.210;6.504;2022-09-09T07:59:16;16.40;99.90
52058;DHT22;38063;53.210;6.504;2022-09-09T08:01:48;16.50;99.90
52058;DHT22;38063;53.210;6.504;2022-09-09T08:04:16;16.60;99.90
52058;DHT22;38063;53.210;6.504;2022-09-09T08:06:57;16.70;99.90
52058;DHT22;38063;53.210;6.504;2022-09-09T08:09:24;16.70;99.90
52058;DHT22;38063;53.210;6.504;2022-09-09T08:11:55;16.80;99.90
52058;DHT22;38063;53.210;6.504;2022-09-09T08:14:22;16.80;99.90
52058;DHT22;38063;53.210;6.504;2022-09-09T08:16:49;17.00;99.90
52058;DHT22;38063;53.210;6.504;2022-09-09T08:19:15;17.10;99.90
52058;DHT22;38063;53.210;6.504;2022-09-09T08:21:43;17.10;99.90
52058;DHT22;38063;53.210;6.504;2022-09-09T08:24:10;17.20;99.90
52058;DHT22;38063;53.210;6.504;2022-09-09T08:26:38;17.30;99.90
52058;DHT22;38063;53.210;6.504;2022-09-09T08:29:06;17.30;99.90
52058;DHT22;38063;53.210;6.504;2022-09-09T08:31:33;17.40;99.90
52058;DHT22;38063;53.210;6.504;2022-09-09T08:33:59;17.50;99.90
52058;DHT22;38063;53.210;6.504;2022-09-09T08:36:27;17.60;99.90
52058;DHT22;38063;53.210;6.504;2022-09-09T08:38:56;17.60;99.90
52058;DHT22;38063;53.210;6.504;2022-09-09T08:52:16;17.80;99.90
52058;DHT22;38063;53.210;6.504;2022-09-09T08:54:43;17.90;99.90
52058;DHT22;38063;53.210;6.504;2022-09-09T08:57:17;17.90;99.90
52058;DHT22;38063;53.210;6.504;2022-09-09T08:59:44;17.90;99.90
52058;DHT22;38063;53.210;6.504;2022-09-09T09:02:44;18.00;99.90
52058;DHT22;38063;53.210;6.504;2022-09-09T09:05:15;18.20;99.90
52058;DHT22;38063;53.210;6.504;2022-09-09T09:12:55;18.30;99.90
52058;DHT22;38063;53.210;6.504;2022-09-09T09:15:25;18.30;99.90
52058;DHT22;38063;53.210;6.504;2022-09-09T09:17:51;18.30;99.90
52058;DHT22;38063;53.210;6.504;2022-09-09T09:20:23;18.40;99.90
52058;DHT22;38063;53.210;6.504;2022-09-09T09:22:57;18.50;99.90
52058;DHT22;38063;53.210;6.504;2022-09-09T09:25:35;18.60;99.90
52058;DHT22;38063;53.210;6.504;2022-09-09T09:30:42;18.80;99.90
52058;DHT22;38063;53.210;6.504;2022-09-09T09:35:45;19.50;99.90
52058;DHT22;38063;53.210;6.504;2022-09-09T09:38:29;19.70;99.90
52058;DHT22;38063;53.210;6.504;2022-09-09T09:40:57;20.10;99.90
52058;DHT22;38063;53.210;6.504;2022-09-09T09:43:31;20.00;99.90
52058;DHT22;38063;53.210;6.504;2022-09-09T09:45:58;20.00;99.90
52058;DHT22;38063;53.210;6.504;2022-09-09T09:48:25;20.00;99.90
52058;DHT22;38063;53.210;6.504;2022-09-09T09:50:52;20.00;99.90
52058;DHT22;38063;53.210;6.504;2022-09-09T09:53:25;20.00;99.90
52058;DHT22;38063;53.210;6.504;2022-09-09T09:55:57;20.20;99.90
52058;DHT22;38063;53.210;6.504;2022-09-09T09:58:25;20.30;99.90
52058;DHT22;38063;53.210;6.504;2022-09-09T10:00:53;20.30;99.90
52058;DHT22;38063;53.210;6.504;2022-09-09T10:03:23;20.30;99.90
52058;DHT22;38063;53.210;6.504;2022-09-09T10:05:48;20.20;99.90
52058;DHT22;38063;53.210;6.504;2022-09-09T10:08:16;20.10;99.90
52058;DHT22;38063;53.210;6.504;2022-09-09T10:11:04;19.90;99.90
52058;DHT22;38063;53.210;6.504;2022-09-09T10:13:44;19.80;99.90
52058;DHT22;38063;53.210;6.504;2022-09-09T10:19:34;19.60;99.90
52058;DHT22;38063;53.210;6.504;2022-09-09T10:22:26;19.60;99.90
52058;DHT22;38063;53.210;6.504;2022-09-09T10:31:29;19.50;99.90
52058;DHT22;38063;53.210;6.504;2022-09-09T10:34:23;19.40;99.90
52058;DHT22;38063;53.210;6.504;2022-09-09T10:36:55;19.50;99.90
52058;DHT22;38063;53.210;6.504;2022-09-09T10:39:39;19.60;99.90
52058;DHT22;38063;53.210;6.504;2022-09-09T10:42:16;19.80;99.90
52058;DHT22;38063;53.210;6.504;2022-09-09T10:47:49;19.90;99.90
52058;DHT22;38063;53.210;6.504;2022-09-09T10:50:58;20.10;99.90
52058;DHT22;38063;53.210;6.504;2022-09-09T10:56:16;20.80;99.90
52058;DHT22;38063;53.210;6.504;2022-09-09T11:03:55;20.90;99.90
52058;DHT22;38063;53.210;6.504;2022-09-09T11:06:27;20.90;99.90
52058;DHT22;38063;53.210;6.504;2022-09-09T11:08:56;21.10;99.90
52058;DHT22;38063;53.210;6.504;2022-09-09T11:12:01;21.40;99.90
52058;DHT22;38063;53.210;6.504;2022-09-09T11:14:31;21.20;99.90
52058;DHT22;38063;53.210;6.504;2022-09-09T11:17:04;21.10;99.90
52058;DHT22;38063;53.210;6.504;2022-09-09T11:22:04;21.70;99.90
52058;DHT22;38063;53.210;6.504;2022-09-09T11:24:41;22.00;99.90
52058;DHT22;38063;53.210;6.504;2022-09-09T11:27:25;22.30;99.90
52058;DHT22;38063;53.210;6.504;2022-09-09T11:38:26;23.10;99.90
52058;DHT22;38063;53.210;6.504;2022-09-09T11:41:11;23.20;99.90
52058;DHT22;38063;53.210;6.504;2022-09-09T11:46:04;22.80;99.90
52058;DHT22;38063;53.210;6.504;2022-09-09T11:51:11;22.70;99.90
52058;DHT22;38063;53.210;6.504;2022-09-09T11:53:49;22.70;99.90
52058;DHT22;38063;53.210;6.504;2022-09-09T11:56:25;22.50;99.90
52058;DHT22;38063;53.210;6.504;2022-09-09T12:01:41;22.00;99.90
52058;DHT22;38063;53.210;6.504;2022-09-09T12:04:33;22.10;99.90
52058;DHT22;38063;53.210;6.504;2022-09-09T12:09:52;22.50;99.90
52058;DHT22;38063;53.210;6.504;2022-09-09T12:15:21;22.30;99.90
52058;DHT22;38063;53.210;6.504;2022-09-09T12:17:50;22.30;99.90
52058;DHT22;38063;53.210;6.504;2022-09-09T12:20:22;22.20;99.90
52058;DHT22;38063;53.210;6.504;2022-09-09T12:28:19;22.20;99.90
52058;DHT22;38063;53.210;6.504;2022-09-09T12:31:10;22.20;99.90
52058;DHT22;38063;53.210;6.504;2022-09-09T12:33:43;22.00;99.90
52058;DHT22;38063;53.210;6.504;2022-09-09T12:36:18;21.90;99.90
52058;DHT22;38063;53.210;6.504;2022-09-09T12:38:45;21.80;99.90
52058;DHT22;38063;53.210;6.504;2022-09-09T12:41:28;21.70;99.90
52058;DHT22;38063;53.210;6.504;2022-09-09T12:44:09;21.70;99.90
52058;DHT22;38063;53.210;6.504;2022-09-09T12:46:41;21.70;99.90
52058;DHT22;38063;53.210;6.504;2022-09-09T12:49:29;21.80;99.90
52058;DHT22;38063;53.210;6.504;2022-09-09T12:51:56;21.80;99.90
52058;DHT22;38063;53.210;6.504;2022-09-09T12:54:23;21.90;99.90
52058;DHT22;38063;53.210;6.504;2022-09-09T12:56:49;22.00;99.90
52058;DHT22;38063;53.210;6.504;2022-09-09T12:59:27;22.20;99.90
52058;DHT22;38063;53.210;6.504;2022-09-09T13:02:00;22.40;99.90
52058;DHT22;38063;53.210;6.504;2022-09-09T13:04:25;22.30;99.90
52058;DHT22;38063;53.210;6.504;2022-09-09T13:06:51;22.40;99.90
52058;DHT22;38063;53.210;6.504;2022-09-09T13:09:21;22.30;99.90
52058;DHT22;38063;53.210;6.504;2022-09-09T13:11:52;22.30;99.90
52058;DHT22;38063;53.210;6.504;2022-09-09T13:14:31;22.20;99.90
52058;DHT22;38063;53.210;6.504;2022-09-09T13:17:02;22.20;99.90
52058;DHT22;38063;53.210;6.504;2022-09-09T13:19:59;22.10;99.90
52058;DHT22;38063;53.210;6.504;2022-09-09T13:22:38;22.10;99.90
52058;DHT22;38063;53.210;6.504;2022-09-09T13:27:38;22.30;99.90
52058;DHT22;38063;53.210;6.504;2022-09-09T13:32:59;22.20;99.90
52058;DHT22;38063;53.210;6.504;2022-09-09T13:35:26;22.10;99.90
52058;DHT22;38063;53.210;6.504;2022-09-09T13:37:52;22.00;99.90
52058;DHT22;38063;53.210;6.504;2022-09-09T13:40:31;22.00;99.90
52058;DHT22;38063;53.210;6.504;2022-09-09T13:43:27;21.90;99.90
52058;DHT22;38063;53.210;6.504;2022-09-09T13:46:22;21.80;99.90
52058;DHT22;38063;53.210;6.504;2022-09-09T13:49:01;21.70;99.90
52058;DHT22;38063;53.210;6.504;2022-09-09T13:53:56;21.40;99.90
52058;DHT22;38063;53.210;6.504;2022-09-09T13:56:23;21.30;99.90
52058;DHT22;38063;53.210;6.504;2022-09-09T13:58:48;21.30;99.90
52058;DHT22;38063;53.210;6.504;2022-09-09T14:01:14;21.20;99.90
52058;DHT22;38063;53.210;6.504;2022-09-09T14:03:40;21.20;99.90
52058;DHT22;38063;53.210;6.504;2022-09-09T14:06:06;21.10;99.90
52058;DHT22;38063;53.210;6.504;2022-09-09T14:08:32;21.10;99.90
52058;DHT22;38063;53.210;6.504;2022-09-09T14:11:03;21.10;99.90
52058;DHT22;38063;53.210;6.504;2022-09-09T14:13:29;21.30;99.90
52058;DHT22;38063;53.210;6.504;2022-09-09T14:15:55;21.60;99.90
52058;DHT22;38063;53.210;6.504;2022-09-09T14:18:20;21.80;99.90
52058;DHT22;38063;53.210;6.504;2022-09-09T14:20:47;21.90;99.90
52058;DHT22;38063;53.210;6.504;2022-09-09T14:23:13;21.80;99.90
52058;DHT22;38063;53.210;6.504;2022-09-09T14:25:43;21.70;99.90
52058;DHT22;38063;53.210;6.504;2022-09-09T14:28:10;21.50;99.90
52058;DHT22;38063;53.210;6.504;2022-09-09T14:30:40;21.30;99.90
52058;DHT22;38063;53.210;6.504;2022-09-09T14:33:13;21.20;99.90
52058;DHT22;38063;53.210;6.504;2022-09-09T14:35:39;21.00;99.90
52058;DHT22;38063;53.210;6.504;2022-09-09T14:38:07;20.80;99.90
52058;DHT22;38063;53.210;6.504;2022-09-09T14:40:37;20.70;99.90
52058;DHT22;38063;53.210;6.504;2022-09-09T14:43:04;20.50;99.90
52058;DHT22;38063;53.210;6.504;2022-09-09T14:45:31;20.40;99.90
52058;DHT22;38063;53.210;6.504;2022-09-09T14:47:57;20.20;99.90
52058;DHT22;38063;53.210;6.504;2022-09-09T14:50:23;20.10;99.90
52058;DHT22;38063;53.210;6.504;2022-09-09T14:52:49;20.10;99.90
52058;DHT22;38063;53.210;6.504;2022-09-09T14:55:16;19.90;99.90
52058;DHT22;38063;53.210;6.504;2022-09-09T14:57:42;19.90;99.90
52058;DHT22;38063;53.210;6.504;2022-09-09T15:00:09;19.80;99.90
52058;DHT22;38063;53.210;6.504;2022-09-09T15:02:35;19.80;99.90
52058;DHT22;38063;53.210;6.504;2022-09-09T15:05:01;19.70;99.90
52058;DHT22;38063;53.210;6.504;2022-09-09T15:07:27;19.90;99.90
52058;DHT22;38063;53.210;6.504;2022-09-09T15:09:54;19.90;99.90
52058;DHT22;38063;53.210;6.504;2022-09-09T15:12:20;20.00;99.90
52058;DHT22;38063;53.210;6.504;2022-09-09T15:14:46;20.20;99.90
52058;DHT22;38063;53.210;6.504;2022-09-09T15:17:12;20.40;99.90
52058;DHT22;38063;53.210;6.504;2022-09-09T15:19:38;20.50;99.90
52058;DHT22;38063;53.210;6.504;2022-09-09T15:22:04;20.70;99.90
52058;DHT22;38063;53.210;6.504;2022-09-09T15:24:33;20.70;99.90
52058;DHT22;38063;53.210;6.504;2022-09-09T15:27:00;20.70;99.90
52058;DHT22;38063;53.210;6.504;2022-09-09T15:29:26;20.70;99.90
52058;DHT22;38063;53.210;6.504;2022-09-09T15:31:53;20.80;99.90
52058;DHT22;38063;53.210;6.504;2022-09-09T15:34:20;21.00;99.90
52058;DHT22;38063;53.210;6.504;2022-09-09T15:36:46;21.30;99.90
52058;DHT22;38063;53.210;6.504;2022-09-09T15:39:13;21.30;99.90
52058;DHT22;38063;53.210;6.504;2022-09-09T15:41:42;21.30;99.90
52058;DHT22;38063;53.210;6.504;2022-09-09T15:44:09;21.30;99.90
52058;DHT22;38063;53.210;6.504;2022-09-09T15:46:53;21.40;99.90
52058;DHT22;38063;53.210;6.504;2022-09-09T15:49:24;21.40;99.90
52058;DHT22;38063;53.210;6.504;2022-09-09T15:51:57;21.30;99.90
52058;DHT22;38063;53.210;6.504;2022-09-09T15:54:25;21.30;99.90
52058;DHT22;38063;53.210;6.504;2022-09-09T15:56:56;21.10;99.90
52058;DHT22;38063;53.210;6.504;2022-09-09T15:59:23;21.00;99.90
52058;DHT22;38063;53.210;6.504;2022-09-09T16:01:49;20.80;99.90
52058;DHT22;38063;53.210;6.504;2022-09-09T16:04:20;20.60;99.90
52058;DHT22;38063;53.210;6.504;2022-09-09T16:07:00;20.50;99.90
52058;DHT22;38063;53.210;6.504;2022-09-09T16:09:27;20.30;99.90
52058;DHT22;38063;53.210;6.504;2022-09-09T16:11:56;20.10;99.90
52058;DHT22;38063;53.210;6.504;2022-09-09T16:14:22;20.00;99.90
52058;DHT22;38063;53.210;6.504;2022-09-09T16:16:47;19.90;99.90
52058;DHT22;38063;53.210;6.504;2022-09-09T16:19:13;19.90;99.90
52058;DHT22;38063;53.210;6.504;2022-09-09T16:21:50;19.80;99.90
52058;DHT22;38063;53.210;6.504;2022-09-09T16:24:18;19.80;99.90
52058;DHT22;38063;53.210;6.504;2022-09-09T16:26:46;19.80;99.90
52058;DHT22;38063;53.210;6.504;2022-09-09T16:29:13;19.70;99.90
52058;DHT22;38063;53.210;6.504;2022-09-09T16:31:40;19.70;99.90
52058;DHT22;38063;53.210;6.504;2022-09-09T16:34:06;19.60;99.90
52058;DHT22;38063;53.210;6.504;2022-09-09T16:36:35;19.60;99.90
52058;DHT22;38063;53.210;6.504;2022-09-09T16:39:12;19.50;99.90
52058;DHT22;38063;53.210;6.504;2022-09-09T16:41:40;19.40;99.90
52058;DHT22;38063;53.210;6.504;2022-09-09T16:44:08;19.40;99.90
52058;DHT22;38063;53.210;6.504;2022-09-09T16:46:36;19.30;99.90
52058;DHT22;38063;53.210;6.504;2022-09-09T16:49:03;19.30;99.90
52058;DHT22;38063;53.210;6.504;2022-09-09T16:51:35;19.20;99.90
52058;DHT22;38063;53.210;6.504;2022-09-09T16:54:03;19.20;99.90
52058;DHT22;38063;53.210;6.504;2022-09-09T16:56:33;19.20;99.90
52058;DHT22;38063;53.210;6.504;2022-09-09T16:59:02;19.10;99.90
52058;DHT22;38063;53.210;6.504;2022-09-09T17:01:30;19.00;99.90
52058;DHT22;38063;53.210;6.504;2022-09-09T17:04:00;19.00;99.90
52058;DHT22;38063;53.210;6.504;2022-09-09T17:06:27;18.90;99.90
52058;DHT22;38063;53.210;6.504;2022-09-09T17:08:59;18.90;99.90
52058;DHT22;38063;53.210;6.504;2022-09-09T17:11:26;18.80;99.90
52058;DHT22;38063;53.210;6.504;2022-09-09T17:13:52;18.70;99.90
52058;DHT22;38063;53.210;6.504;2022-09-09T17:16:21;18.60;99.90
52058;DHT22;38063;53.210;6.504;2022-09-09T17:18:51;18.50;99.90
52058;DHT22;38063;53.210;6.504;2022-09-09T17:21:19;18.50;99.90
52058;DHT22;38063;53.210;6.504;2022-09-09T17:23:46;18.50;99.90
52058;DHT22;38063;53.210;6.504;2022-09-09T17:26:14;18.40;99.90
52058;DHT22;38063;53.210;6.504;2022-09-09T17:28:41;18.30;99.90
52058;DHT22;38063;53.210;6.504;2022-09-09T17:31:09;18.30;99.90
52058;DHT22;38063;53.210;6.504;2022-09-09T17:33:38;18.20;99.90
52058;DHT22;38063;53.210;6.504;2022-09-09T17:38:33;18.20;99.90
52058;DHT22;38063;53.210;6.504;2022-09-09T17:41:08;18.20;99.90
52058;DHT22;38063;53.210;6.504;2022-09-09T17:43:34;18.20;99.90
52058;DHT22;38063;53.210;6.504;2022-09-09T17:46:31;18.20;99.90
52058;DHT22;38063;53.210;6.504;2022-09-09T17:49:02;18.10;99.90